Time;durP1;ratioP1;P1;durP2;ratioP2;P2;SDS_P1;SDS_P2;PMS_P1;PMS_P2;Temp;Humidity;BMP_temperature;BMP_pressure;BME280_temperature;BME280_humidity;BME280_pressure;Samples;Min_cycle;Max_cycle;Signal;HPM_P1;HPM_P2
2021/10/17 00:00:25;;;;;;;15.37;12.60;;;6.00;99.90;;;;;;5026074;28;20210;-39
2021/10/17 00:02:52;;;;;;;17.40;12.53;;;6.10;99.90;;;;;;5025748;28;20604;-38
2021/10/17 00:05:22;;;;;;;11.50;10.30;;;5.90;99.90;;;;;;5020401;28;20429;-38
2021/10/17 00:07:48;;;;;;;10.73;8.20;;;5.90;99.90;;;;;;5025968;28;20928;-38
2021/10/17 00:10:18;;;;;;;9.13;6.50;;;6.10;99.90;;;;;;5025869;28;20432;-38
2021/10/17 00:12:44;;;;;;;9.07;7.33;;;6.20;99.90;;;;;;5025717;28;20863;-38
2021/10/17 00:15:12;;;;;;;9.40;7.03;;;6.20;99.90;;;;;;5026061;28;20421;-38
2021/10/17 00:17:38;;;;;;;9.80;6.70;;;6.40;99.90;;;;;;5026127;28;20427;-38
2021/10/17 00:20:07;;;;;;;9.50;8.40;;;6.20;99.90;;;;;;5020513;28;20488;-38
2021/10/17 00:22:33;;;;;;;9.20;7.53;;;6.20;99.90;;;;;;5025312;28;20429;-38
2021/10/17 00:24:59;;;;;;;9.37;7.40;;;6.00;99.90;;;;;;5025681;28;20495;-38
2021/10/17 00:27:24;;;;;;;10.97;7.80;;;6.10;99.90;;;;;;5025839;28;20540;-38
2021/10/17 00:29:50;;;;;;;9.90;7.43;;;6.10;99.90;;;;;;5025805;28;20566;-38
2021/10/17 00:32:16;;;;;;;10.83;7.60;;;6.00;99.90;;;;;;5024371;28;20472;-38
2021/10/17 00:34:42;;;;;;;9.00;6.60;;;6.10;99.90;;;;;;5020462;28;20438;-38
2021/10/17 00:37:08;;;;;;;13.50;7.20;;;6.10;99.90;;;;;;5021515;28;20202;-38
2021/10/17 00:39:35;;;;;;;7.30;6.60;;;6.20;99.90;;;;;;5024189;28;20194;-38
2021/10/17 00:42:04;;;;;;;7.90;7.00;;;6.10;99.90;;;;;;5025716;28;20437;-38
2021/10/17 00:44:31;;;;;;;9.13;6.73;;;6.50;99.90;;;;;;5025181;28;20496;-39
2021/10/17 00:46:57;;;;;;;8.43;6.70;;;6.20;99.90;;;;;;5023961;28;20985;-38
2021/10/17 00:49:23;;;;;;;8.17;6.30;;;6.50;99.90;;;;;;5023255;28;20425;-38
2021/10/17 00:51:49;;;;;;;9.17;6.60;;;6.40;99.90;;;;;;5017158;28;20481;-38
2021/10/17 00:54:15;;;;;;;13.97;7.50;;;6.30;99.90;;;;;;5023403;28;20178;-37
2021/10/17 00:56:43;;;;;;;7.97;6.97;;;6.20;99.90;;;;;;5025894;28;20441;-38
2021/10/17 00:59:10;;;;;;;10.77;6.80;;;6.30;99.90;;;;;;5027077;28;20452;-38
2021/10/17 01:01:36;;;;;;;8.63;6.57;;;6.40;99.90;;;;;;5030079;28;20529;-38
2021/10/17 01:04:02;;;;;;;9.10;7.30;;;6.40;99.90;;;;;;5028924;28;20479;-38
2021/10/17 01:06:28;;;;;;;9.43;6.67;;;6.30;99.90;;;;;;5020841;28;20429;-39
2021/10/17 01:08:54;;;;;;;9.03;6.60;;;6.20;99.90;;;;;;5029045;28;20428;-38
2021/10/17 01:11:20;;;;;;;10.10;6.43;;;6.40;99.90;;;;;;5029382;28;20853;-38
2021/10/17 01:13:46;;;;;;;8.53;6.10;;;6.20;99.90;;;;;;5028615;28;20428;-39
2021/10/17 01:16:11;;;;;;;6.97;5.87;;;6.10;99.90;;;;;;5029288;28;20425;-38
2021/10/17 01:18:37;;;;;;;9.70;6.60;;;5.90;99.90;;;;;;5028886;28;20197;-38
2021/10/17 01:21:03;;;;;;;11.77;6.60;;;5.80;99.90;;;;;;5017890;28;20187;-38
2021/10/17 01:23:29;;;;;;;10.07;7.60;;;5.90;99.90;;;;;;5027295;28;20365;-38
2021/10/17 01:25:55;;;;;;;12.27;6.80;;;5.80;99.90;;;;;;5029141;28;20809;-38
2021/10/17 01:28:21;;;;;;;10.53;7.47;;;6.00;99.90;;;;;;5028631;28;20439;-38
2021/10/17 01:30:47;;;;;;;9.00;7.17;;;5.90;99.90;;;;;;5029553;28;20816;-38
2021/10/17 01:33:13;;;;;;;9.80;6.73;;;6.10;99.90;;;;;;5027970;28;20471;-39
2021/10/17 01:35:39;;;;;;;7.53;6.37;;;6.10;99.90;;;;;;5022171;28;20507;-39
2021/10/17 01:38:06;;;;;;;8.40;6.90;;;6.00;99.90;;;;;;5025997;28;20266;-38
2021/10/17 01:40:33;;;;;;;8.63;6.77;;;5.90;99.90;;;;;;5028594;28;20252;-38
2021/10/17 01:42:58;;;;;;;10.53;7.50;;;5.80;99.90;;;;;;5028166;28;20416;-38
2021/10/17 01:45:25;;;;;;;9.67;7.27;;;5.90;99.90;;;;;;5028659;28;20428;-38
2021/10/17 01:47:52;;;;;;;9.90;7.27;;;5.90;99.90;;;;;;5028645;28;20667;-39
2021/10/17 01:50:19;;;;;;;8.87;6.37;;;5.80;99.90;;;;;;5026833;28;20473;-38
2021/10/17 01:52:45;;;;;;;7.97;6.40;;;6.00;99.90;;;;;;5023455;28;20544;-38
2021/10/17 01:55:11;;;;;;;7.43;6.73;;;5.80;99.90;;;;;;5028250;28;20838;-37
2021/10/17 01:57:37;;;;;;;10.27;6.73;;;5.80;99.90;;;;;;5028318;28;20433;-38
2021/10/17 02:00:05;;;;;;;9.47;6.60;;;5.70;99.90;;;;;;5028133;28;20609;-37
2021/10/17 02:02:31;;;;;;;9.10;6.20;;;5.60;99.90;;;;;;5028426;28;20495;-38
2021/10/17 02:04:57;;;;;;;11.33;7.10;;;5.70;99.90;;;;;;5024603;28;20421;-38
2021/10/17 02:07:22;;;;;;;8.10;6.40;;;5.60;99.90;;;;;;5018010;28;20233;-38
2021/10/17 02:09:48;;;;;;;9.13;7.17;;;5.70;99.90;;;;;;5028113;28;20289;-38
2021/10/17 02:12:15;;;;;;;7.60;6.90;;;5.70;99.90;;;;;;5028434;28;20405;-38
2021/10/17 02:14:41;;;;;;;8.13;7.30;;;5.80;99.90;;;;;;5027652;28;20206;-39
2021/10/17 02:17:07;;;;;;;10.93;7.70;;;5.60;99.90;;;;;;5015058;28;20486;-38
2021/10/17 02:19:33;;;;;;;7.60;6.83;;;6.20;99.90;;;;;;5028072;28;20439;-38
2021/10/17 02:21:59;;;;;;;8.77;7.87;;;6.20;99.90;;;;;;5018314;28;20286;-38
2021/10/17 02:24:24;;;;;;;9.23;6.87;;;6.20;99.90;;;;;;5027325;28;20727;-38
2021/10/17 02:26:50;;;;;;;7.33;6.30;;;6.00;99.90;;;;;;5027711;28;20252;-38
2021/10/17 02:29:16;;;;;;;8.93;6.87;;;5.90;99.90;;;;;;5028102;28;20286;-38
2021/10/17 02:31:41;;;;;;;12.27;7.20;;;6.10;99.90;;;;;;5014737;28;20515;-38
2021/10/17 02:34:07;;;;;;;8.13;6.40;;;5.90;99.90;;;;;;5027620;28;20285;-38
2021/10/17 02:36:33;;;;;;;11.43;7.77;;;6.00;99.90;;;;;;5020729;28;20191;-38
2021/10/17 02:38:58;;;;;;;7.30;6.47;;;6.10;99.90;;;;;;5026109;28;20202;-38
2021/10/17 02:41:24;;;;;;;9.50;7.60;;;6.10;99.90;;;;;;5027558;28;20194;-38
2021/10/17 02:43:50;;;;;;;8.57;6.50;;;6.00;99.90;;;;;;5026858;28;20186;-38
2021/10/17 02:46:16;;;;;;;7.60;6.80;;;6.20;99.90;;;;;;5027563;28;20198;-38
2021/10/17 02:48:41;;;;;;;10.80;6.60;;;6.00;99.90;;;;;;5027709;28;20210;-38
2021/10/17 02:51:07;;;;;;;10.53;7.67;;;6.00;99.90;;;;;;5020955;28;20516;-38
2021/10/17 02:53:34;;;;;;;9.10;6.97;;;6.20;99.90;;;;;;5025920;28;20197;-38
2021/10/17 02:56:00;;;;;;;8.90;5.90;;;6.00;99.90;;;;;;5026261;28;20444;-38
2021/10/17 02:58:26;;;;;;;9.30;6.63;;;6.30;99.90;;;;;;5027274;28;20892;-38
2021/10/17 03:00:52;;;;;;;9.10;7.03;;;6.10;99.90;;;;;;5027654;28;20819;-38
2021/10/17 03:03:17;;;;;;;8.10;6.50;;;6.10;99.90;;;;;;5026421;28;20425;-37
2021/10/17 03:05:43;;;;;;;7.97;6.93;;;6.40;99.90;;;;;;5022991;28;20544;-38
2021/10/17 03:08:08;;;;;;;9.47;7.00;;;6.50;99.90;;;;;;5020935;28;20187;-38
2021/10/17 03:10:34;;;;;;;8.30;6.63;;;6.30;99.90;;;;;;5026816;28;20293;-38
2021/10/17 03:13:00;;;;;;;8.37;6.77;;;6.30;99.90;;;;;;5026801;28;20406;-38
2021/10/17 03:15:25;;;;;;;10.90;7.00;;;6.40;99.90;;;;;;5027383;28;20201;-38
2021/10/17 03:17:53;;;;;;;7.83;6.63;;;6.30;99.90;;;;;;5026980;28;20590;-39
2021/10/17 03:20:19;;;;;;;8.60;7.00;;;6.40;99.90;;;;;;5027227;28;20480;-38
2021/10/17 03:22:45;;;;;;;9.70;7.27;;;6.60;99.90;;;;;;5012240;28;21017;-38
2021/10/17 03:25:10;;;;;;;9.30;7.70;;;6.40;99.90;;;;;;5026738;28;20190;-38
2021/10/17 03:27:36;;;;;;;7.97;6.97;;;6.60;99.90;;;;;;5026820;28;20324;-38
2021/10/17 03:30:03;;;;;;;12.07;7.97;;;6.40;99.90;;;;;;5026625;28;20201;-38
2021/10/17 03:32:29;;;;;;;11.70;8.27;;;6.60;99.90;;;;;;5026837;28;20567;-38
2021/10/17 03:34:55;;;;;;;9.60;7.90;;;6.50;99.90;;;;;;5026065;28;20432;-38
2021/10/17 03:37:20;;;;;;;9.57;8.10;;;6.60;99.90;;;;;;5015523;28;20253;-38
2021/10/17 03:39:46;;;;;;;10.13;7.50;;;6.60;99.90;;;;;;5023003;28;20190;-37
2021/10/17 03:42:12;;;;;;;14.03;7.50;;;6.80;99.90;;;;;;5026498;28;20760;-38
2021/10/17 03:44:37;;;;;;;13.00;6.90;;;6.90;99.90;;;;;;5025948;28;20668;-38
2021/10/17 03:47:03;;;;;;;10.57;6.93;;;6.90;99.90;;;;;;5026904;28;20198;-38
2021/10/17 03:49:30;;;;;;;7.77;6.43;;;6.80;99.90;;;;;;5026333;28;20190;-38
2021/10/17 03:51:55;;;;;;;9.33;8.23;;;6.70;99.90;;;;;;5016884;28;20488;-38
2021/10/17 03:54:21;;;;;;;8.37;6.73;;;6.90;99.90;;;;;;5025447;28;20795;-38
2021/10/17 03:56:47;;;;;;;12.43;7.60;;;6.90;99.90;;;;;;5026179;28;20604;-38
2021/10/17 03:59:15;;;;;;;10.43;7.57;;;7.10;99.90;;;;;;5026270;28;20352;-38
2021/10/17 04:01:41;;;;;;;8.60;7.20;;;6.90;99.90;;;;;;5021139;28;20206;-38
2021/10/17 04:04:06;;;;;;;7.83;6.83;;;7.10;99.90;;;;;;5027296;28;20747;-38
2021/10/17 04:06:32;;;;;;;9.10;7.07;;;7.10;99.90;;;;;;5020920;28;21016;-38
2021/10/17 04:08:58;;;;;;;9.47;6.77;;;7.30;99.90;;;;;;5019749;28;20575;-38
2021/10/17 04:11:23;;;;;;;11.50;6.47;;;7.10;99.90;;;;;;5025908;28;20210;-38
2021/10/17 04:13:49;;;;;;;14.20;7.10;;;7.30;99.90;;;;;;5024257;28;20186;-38
2021/10/17 04:16:15;;;;;;;8.37;7.10;;;7.50;99.90;;;;;;5025835;28;20186;-38
2021/10/17 04:18:40;;;;;;;15.10;7.40;;;7.50;99.90;;;;;;5025962;28;20217;-38
2021/10/17 04:21:06;;;;;;;10.43;6.00;;;7.40;99.90;;;;;;5018326;28;20221;-38
2021/10/17 04:23:32;;;;;;;9.07;6.77;;;7.50;99.90;;;;;;5016382;28;20208;-38
2021/10/17 04:25:57;;;;;;;12.57;7.50;;;7.60;99.90;;;;;;5030614;28;20376;-38
2021/10/17 04:28:23;;;;;;;9.50;6.73;;;7.60;99.90;;;;;;5025589;28;20217;-38
2021/10/17 04:30:49;;;;;;;11.03;7.00;;;7.80;99.90;;;;;;5025724;28;20256;-38
2021/10/17 04:33:14;;;;;;;12.03;6.47;;;7.60;99.90;;;;;;5023974;28;20191;-38
2021/10/17 04:35:40;;;;;;;9.90;7.70;;;7.60;99.90;;;;;;5025817;28;20186;-38
2021/10/17 04:38:07;;;;;;;7.77;6.60;;;7.70;99.90;;;;;;5015788;28;20186;-38
2021/10/17 04:40:34;;;;;;;8.53;6.63;;;7.40;99.90;;;;;;5025612;28;20421;-38
2021/10/17 04:43:00;;;;;;;9.20;7.10;;;7.60;99.90;;;;;;5025192;28;20432;-38
2021/10/17 04:45:26;;;;;;;9.10;6.03;;;7.60;99.90;;;;;;5019693;28;20998;-38
2021/10/17 04:47:52;;;;;;;13.23;6.80;;;7.70;99.90;;;;;;4989245;28;20468;-38
2021/10/17 04:50:18;;;;;;;9.13;6.60;;;7.60;99.90;;;;;;5024942;28;20283;-38
2021/10/17 04:52:45;;;;;;;11.93;6.50;;;7.70;99.90;;;;;;5015389;28;20221;-38
2021/10/17 04:55:10;;;;;;;7.33;5.90;;;7.60;99.90;;;;;;5024811;28;20430;-38
2021/10/17 04:57:36;;;;;;;7.57;6.73;;;7.80;99.90;;;;;;5024509;28;20468;-38
2021/10/17 05:00:06;;;;;;;10.60;6.43;;;7.80;99.90;;;;;;5027374;28;20198;-38
2021/10/17 05:02:33;;;;;;;8.93;6.27;;;7.80;99.90;;;;;;5024901;28;20506;-38
2021/10/17 05:04:58;;;;;;;8.67;6.67;;;7.80;99.90;;;;;;5025151;28;20900;-38
2021/10/17 05:07:24;;;;;;;9.40;6.80;;;7.60;99.90;;;;;;5016209;28;20226;-38
2021/10/17 05:09:50;;;;;;;8.87;5.73;;;7.60;99.90;;;;;;5025247;28;20221;-38
2021/10/17 05:12:15;;;;;;;8.10;6.27;;;7.50;99.90;;;;;;5025352;28;20680;-38
2021/10/17 05:14:41;;;;;;;7.77;6.70;;;7.70;99.90;;;;;;5024626;28;20293;-38
2021/10/17 05:17:07;;;;;;;8.23;6.40;;;7.50;99.90;;;;;;5025348;28;20281;-38
2021/10/17 05:19:32;;;;;;;9.23;6.10;;;7.70;99.90;;;;;;5025224;28;20276;-38
2021/10/17 05:21:58;;;;;;;8.00;6.30;;;7.80;99.90;;;;;;5019282;28;20274;-38
2021/10/17 05:24:24;;;;;;;7.93;6.40;;;7.80;99.90;;;;;;5017991;28;20194;-38
2021/10/17 05:26:49;;;;;;;8.00;5.63;;;7.70;99.90;;;;;;5025030;28;20190;-38
2021/10/17 05:29:15;;;;;;;11.37;6.03;;;7.90;99.90;;;;;;5025240;28;20573;-38
2021/10/17 05:31:41;;;;;;;11.20;6.47;;;7.80;99.90;;;;;;5025433;28;20498;-38
2021/10/17 05:34:06;;;;;;;8.90;6.70;;;7.60;99.90;;;;;;5023158;28;20203;-38
2021/10/17 05:36:34;;;;;;;10.40;6.40;;;7.80;99.90;;;;;;5021917;28;20420;-39
2021/10/17 05:39:00;;;;;;;7.83;5.60;;;7.60;99.90;;;;;;5017063;28;20209;-38
2021/10/17 05:41:26;;;;;;;8.03;5.83;;;7.60;99.90;;;;;;5025166;28;21361;-38
2021/10/17 05:43:52;;;;;;;8.83;6.33;;;7.60;99.90;;;;;;5024472;28;20588;-38
2021/10/17 05:46:17;;;;;;;8.57;6.07;;;7.60;99.90;;;;;;5028225;28;20654;-38
2021/10/17 05:48:43;;;;;;;8.53;7.10;;;7.60;99.90;;;;;;5028674;28;20194;-38
2021/10/17 05:51:09;;;;;;;7.00;6.30;;;7.40;99.90;;;;;;5028532;28;20217;-38
2021/10/17 05:53:34;;;;;;;8.87;6.10;;;7.40;99.90;;;;;;5015758;28;20269;-38
2021/10/17 05:56:00;;;;;;;7.90;5.43;;;7.40;99.90;;;;;;5028248;28;20212;-38
2021/10/17 05:58:26;;;;;;;9.10;6.70;;;7.60;99.90;;;;;;5028517;28;20289;-38
2021/10/17 06:00:51;;;;;;;6.90;5.70;;;7.40;99.90;;;;;;5028078;28;20206;-38
2021/10/17 06:03:17;;;;;;;10.17;6.23;;;7.60;99.90;;;;;;5027988;28;20191;-38
2021/10/17 06:05:43;;;;;;;8.10;6.40;;;7.50;99.90;;;;;;5028171;28;20624;-39
2021/10/17 06:08:09;;;;;;;7.97;6.30;;;7.60;99.90;;;;;;5016283;28;20438;-38
2021/10/17 06:10:34;;;;;;;7.20;5.87;;;7.40;99.90;;;;;;5027578;28;20195;-38
2021/10/17 06:13:00;;;;;;;6.33;5.30;;;7.40;99.90;;;;;;5027922;28;20190;-38
2021/10/17 06:15:26;;;;;;;11.20;6.30;;;7.60;99.90;;;;;;5028046;28;20413;-38
2021/10/17 06:17:52;;;;;;;8.90;5.77;;;7.40;99.90;;;;;;5028221;28;20273;-38
2021/10/17 06:20:18;;;;;;;9.73;6.50;;;7.70;99.90;;;;;;5033233;28;20986;-38
2021/10/17 06:22:44;;;;;;;7.60;6.40;;;7.70;99.90;;;;;;5031551;28;20282;-38
2021/10/17 06:25:09;;;;;;;9.67;6.10;;;7.70;99.90;;;;;;5026054;28;20232;-38
2021/10/17 06:27:35;;;;;;;10.43;6.50;;;7.60;99.90;;;;;;5027936;28;20293;-38
2021/10/17 06:30:01;;;;;;;11.97;6.63;;;7.60;99.90;;;;;;5028018;28;20198;-38
2021/10/17 06:32:27;;;;;;;7.07;5.90;;;7.70;99.90;;;;;;5028106;28;20348;-38
2021/10/17 06:34:52;;;;;;;7.13;5.73;;;7.80;99.90;;;;;;5027159;28;20182;-38
2021/10/17 06:37:18;;;;;;;6.73;6.03;;;7.70;99.90;;;;;;5024175;28;20716;-38
2021/10/17 06:39:44;;;;;;;8.40;5.63;;;7.90;99.90;;;;;;5021380;28;20298;-38
2021/10/17 06:42:10;;;;;;;7.80;6.47;;;7.90;99.90;;;;;;5027623;28;20269;-38
2021/10/17 06:44:36;;;;;;;10.03;6.37;;;8.10;99.90;;;;;;5026898;28;20198;-38
2021/10/17 06:47:02;;;;;;;9.87;6.10;;;7.80;99.90;;;;;;5027695;28;20426;-38
2021/10/17 06:49:28;;;;;;;9.77;6.63;;;7.90;99.90;;;;;;5027564;28;20198;-38
2021/10/17 06:51:53;;;;;;;10.87;7.60;;;7.80;99.90;;;;;;5027221;28;20218;-38
2021/10/17 06:54:19;;;;;;;7.00;6.20;;;7.90;99.90;;;;;;5015394;28;20535;-38
2021/10/17 06:56:46;;;;;;;10.07;6.97;;;7.80;99.90;;;;;;5026369;28;20194;-38
2021/10/17 06:59:13;;;;;;;8.83;6.50;;;7.80;99.90;;;;;;5026868;28;20213;-38
2021/10/17 07:01:38;;;;;;;10.87;6.00;;;7.90;99.90;;;;;;5026201;28;20428;-38
2021/10/17 07:04:05;;;;;;;10.20;6.97;;;8.10;99.90;;;;;;5026756;28;20426;-38
2021/10/17 07:06:31;;;;;;;8.27;6.63;;;8.10;99.90;;;;;;5027196;28;20245;-38
2021/10/17 07:08:56;;;;;;;8.50;6.60;;;8.00;99.90;;;;;;5016609;28;20433;-38
2021/10/17 07:11:22;;;;;;;9.93;6.70;;;8.10;99.90;;;;;;5027189;28;20217;-38
2021/10/17 07:13:47;;;;;;;8.03;6.50;;;8.10;99.90;;;;;;5026366;28;20179;-38
2021/10/17 07:16:13;;;;;;;7.63;6.70;;;8.00;99.90;;;;;;5027501;28;20213;-38
2021/10/17 07:18:39;;;;;;;8.67;6.30;;;8.10;99.90;;;;;;5026805;28;20189;-38
2021/10/17 07:21:05;;;;;;;11.80;7.67;;;8.10;99.90;;;;;;5027158;28;21026;-38
2021/10/17 07:23:30;;;;;;;9.40;7.47;;;8.20;99.90;;;;;;5028235;28;20206;-38
2021/10/17 07:25:56;;;;;;;10.40;7.37;;;8.20;99.90;;;;;;5020925;28;20214;-38
2021/10/17 07:28:22;;;;;;;9.37;7.50;;;8.20;99.90;;;;;;5026658;28;20220;-38
2021/10/17 07:30:47;;;;;;;8.40;7.47;;;8.10;99.90;;;;;;5026851;28;20199;-38
2021/10/17 07:33:13;;;;;;;10.23;6.80;;;8.10;99.90;;;;;;5025998;28;20613;-39
2021/10/17 07:35:39;;;;;;;11.93;7.77;;;8.30;99.90;;;;;;5026301;28;20213;-38
2021/10/17 07:38:04;;;;;;;8.60;6.70;;;8.00;99.90;;;;;;5019464;28;20194;-38
2021/10/17 07:40:30;;;;;;;7.50;6.50;;;8.40;99.90;;;;;;5019341;28;20195;-38
2021/10/17 07:42:56;;;;;;;13.43;8.23;;;8.30;99.90;;;;;;5025848;28;20244;-38
2021/10/17 07:45:21;;;;;;;10.53;7.30;;;8.50;99.90;;;;;;5026298;28;20336;-39
2021/10/17 07:47:47;;;;;;;11.17;7.83;;;8.60;99.90;;;;;;5026371;28;20213;-38
2021/10/17 07:50:13;;;;;;;10.20;7.03;;;8.50;99.90;;;;;;5025918;28;20190;-38
2021/10/17 07:52:38;;;;;;;9.70;7.10;;;8.50;99.90;;;;;;5023872;28;20218;-38
2021/10/17 07:55:06;;;;;;;14.57;6.97;;;8.70;99.90;;;;;;5022681;28;20186;-38
2021/10/17 07:57:47;;;;;;;10.10;7.63;;;8.60;99.90;;;;;;5026186;28;20214;-39
2021/10/17 08:00:16;;;;;;;10.77;7.90;;;8.80;99.90;;;;;;5026278;28;20417;-38
2021/10/17 08:02:41;;;;;;;10.43;8.70;;;8.70;99.90;;;;;;5026268;28;20453;-38
2021/10/17 08:05:07;;;;;;;12.17;7.13;;;8.70;99.90;;;;;;5025714;28;20468;-38
2021/10/17 08:07:33;;;;;;;13.33;8.50;;;8.80;99.90;;;;;;5024985;28;20202;-39
2021/10/17 08:10:00;;;;;;;12.27;7.53;;;8.80;99.90;;;;;;5014818;28;20421;-38
2021/10/17 08:12:26;;;;;;;12.13;7.77;;;8.80;99.90;;;;;;5025686;28;20240;-38
2021/10/17 08:14:52;;;;;;;11.70;8.30;;;9.00;99.90;;;;;;5025399;28;20852;-38
2021/10/17 08:17:18;;;;;;;9.70;8.03;;;9.00;99.90;;;;;;5026208;28;20190;-38
2021/10/17 08:19:43;;;;;;;11.03;7.73;;;9.30;99.90;;;;;;5024022;28;20190;-38
2021/10/17 08:22:09;;;;;;;11.77;6.90;;;9.00;99.90;;;;;;5033159;28;20197;-38
2021/10/17 08:24:35;;;;;;;8.93;8.03;;;9.10;99.90;;;;;;5018389;28;20256;-38
2021/10/17 08:27:01;;;;;;;11.33;7.60;;;9.10;99.90;;;;;;5023410;28;20198;-38
2021/10/17 08:29:26;;;;;;;13.07;8.50;;;9.00;99.90;;;;;;5025515;28;20633;-39
2021/10/17 08:31:52;;;;;;;14.57;7.93;;;9.30;99.90;;;;;;5023996;28;20374;-38
2021/10/17 08:34:17;;;;;;;11.10;8.30;;;9.30;99.90;;;;;;5024565;28;20711;-39
2021/10/17 08:36:43;;;;;;;8.93;7.30;;;9.50;99.90;;;;;;5024899;28;20676;-38
2021/10/17 08:39:09;;;;;;;12.47;8.47;;;9.40;99.90;;;;;;5012829;28;20249;-38
2021/10/17 08:41:35;;;;;;;14.23;7.80;;;9.60;99.90;;;;;;5024524;28;20218;-38
2021/10/17 08:44:02;;;;;;;9.63;6.87;;;9.70;99.90;;;;;;5023516;28;20951;-38
2021/10/17 08:46:29;;;;;;;10.73;7.53;;;9.60;99.90;;;;;;5024836;28;20523;-39
2021/10/17 08:48:56;;;;;;;10.00;7.23;;;9.60;99.90;;;;;;5024565;28;20431;-38
2021/10/17 08:51:26;;;;;;;12.00;7.33;;;9.70;99.90;;;;;;5024204;28;20526;-38
2021/10/17 08:53:52;;;;;;;8.50;7.23;;;9.70;99.90;;;;;;5017679;28;20595;-38
2021/10/17 08:56:18;;;;;;;10.97;7.43;;;9.70;99.90;;;;;;5023264;28;20632;-38
2021/10/17 08:58:43;;;;;;;11.03;7.77;;;9.80;99.90;;;;;;5025861;28;20603;-39
2021/10/17 09:01:16;;;;;;;12.83;7.57;;;10.10;99.90;;;;;;5023907;28;20661;-38
2021/10/17 09:03:50;;;;;;;10.63;7.10;;;10.00;99.90;;;;;;5026445;28;20217;-38
2021/10/17 09:06:22;;;;;;;8.53;6.60;;;10.00;99.90;;;;;;5044616;28;20416;-38
2021/10/17 09:09:17;;;;;;;7.97;6.80;;;10.10;99.90;;;;;;5029940;28;20856;-38
2021/10/17 09:11:51;;;;;;;8.80;6.43;;;10.00;99.90;;;;;;5033562;28;21073;-38
2021/10/17 09:14:19;;;;;;;13.23;7.53;;;10.20;99.90;;;;;;5024054;28;20435;-38
2021/10/17 09:16:48;;;;;;;8.40;6.60;;;10.30;99.90;;;;;;5024769;28;20754;-38
2021/10/17 09:19:34;;;;;;;12.57;7.73;;;10.20;99.90;;;;;;5033239;28;20420;-38
2021/10/17 09:22:00;;;;;;;11.73;7.53;;;10.30;99.90;;;;;;5028653;28;20514;-38
2021/10/17 09:24:33;;;;;;;9.73;7.20;;;10.40;99.90;;;;;;5033403;28;20438;-38
2021/10/17 09:27:29;;;;;;;9.23;6.27;;;10.40;99.90;;;;;;5023725;28;20244;-38
2021/10/17 09:29:55;;;;;;;11.90;6.27;;;10.50;99.90;;;;;;5026650;28;20421;-38
2021/10/17 09:32:27;;;;;;;10.63;7.07;;;10.60;99.90;;;;;;5027221;28;20616;-38
2021/10/17 09:34:54;;;;;;;9.00;6.37;;;10.60;99.90;;;;;;5029799;28;20187;-38
2021/10/17 09:37:21;;;;;;;11.87;6.70;;;10.60;99.90;;;;;;5028664;28;20836;-39
2021/10/17 09:39:52;;;;;;;8.93;6.30;;;10.60;99.90;;;;;;5021691;28;20437;-38
2021/10/17 09:42:20;;;;;;;10.70;7.10;;;10.70;99.90;;;;;;5027835;28;20765;-38
2021/10/17 09:44:46;;;;;;;9.93;7.00;;;10.80;99.90;;;;;;5026644;28;20465;-38
2021/10/17 09:47:11;;;;;;;6.83;5.90;;;10.80;99.90;;;;;;5028801;28;20464;-38
2021/10/17 09:49:37;;;;;;;10.83;6.00;;;10.80;99.90;;;;;;5046111;28;20792;-38
2021/10/17 09:52:16;;;;;;;8.80;6.10;;;11.00;99.90;;;;;;5047316;28;20503;-38
2021/10/17 09:55:05;;;;;;;8.37;5.57;;;10.90;99.90;;;;;;5023232;28;20183;-38
2021/10/17 09:57:31;;;;;;;12.37;5.70;;;11.20;99.90;;;;;;5025022;28;20643;-39
2021/10/17 09:59:56;;;;;;;10.13;6.17;;;11.10;99.90;;;;;;5027502;28;20622;-38
2021/10/17 10:02:23;;;;;;;8.63;5.17;;;11.30;99.90;;;;;;5027159;28;20460;-38
2021/10/17 10:04:51;;;;;;;10.03;5.43;;;11.20;99.90;;;;;;5027884;28;20277;-38
2021/10/17 10:07:24;;;;;;;9.00;6.80;;;11.30;99.90;;;;;;5028363;28;20523;-38
2021/10/17 10:09:53;;;;;;;9.27;4.83;;;11.30;99.90;;;;;;5017439;28;20944;-38
2021/10/17 10:12:19;;;;;;;6.90;5.40;;;11.40;99.90;;;;;;5027232;28;20472;-39
2021/10/17 10:14:47;;;;;;;8.50;5.40;;;11.40;99.90;;;;;;5029939;28;20421;-38
2021/10/17 10:17:14;;;;;;;11.73;5.77;;;11.40;99.90;;;;;;5024953;28;20455;-39
2021/10/17 10:19:41;;;;;;;12.77;5.67;;;11.50;99.90;;;;;;5028895;28;20594;-38
2021/10/17 10:22:07;;;;;;;8.70;5.00;;;11.60;99.90;;;;;;5026193;28;20842;-38
2021/10/17 10:24:33;;;;;;;7.13;5.27;;;11.70;99.90;;;;;;5028399;28;20468;-39
2021/10/17 10:27:00;;;;;;;7.30;5.97;;;11.70;99.90;;;;;;5023393;28;20443;-38
2021/10/17 10:29:30;;;;;;;7.60;5.50;;;11.80;99.90;;;;;;5026650;28;20202;-38
2021/10/17 10:31:58;;;;;;;6.83;5.50;;;11.80;99.90;;;;;;5027828;28;20465;-38
2021/10/17 10:34:35;;;;;;;14.03;5.57;;;11.80;99.90;;;;;;5027103;28;20436;-39
2021/10/17 10:37:23;;;;;;;8.50;5.57;;;11.90;99.90;;;;;;5027395;28;20424;-39
2021/10/17 10:40:04;;;;;;;13.27;6.23;;;11.90;99.90;;;;;;5020150;28;20438;-38
2021/10/17 10:42:34;;;;;;;12.40;6.60;;;12.00;99.90;;;;;;5026001;28;20885;-38
2021/10/17 10:45:35;;;;;;;6.70;5.30;;;12.00;99.90;;;;;;5025732;28;20444;-38
2021/10/17 10:48:17;;;;;;;9.00;6.20;;;12.10;99.90;;;;;;5014535;28;21014;-39
2021/10/17 10:50:49;;;;;;;7.43;5.70;;;12.10;99.90;;;;;;5026444;28;20433;-40
2021/10/17 10:53:48;;;;;;;8.90;5.07;;;12.20;99.90;;;;;;5026822;28;20449;-38
2021/10/17 10:56:46;;;;;;;7.57;4.63;;;12.40;99.90;;;;;;5015875;28;20927;-39
2021/10/17 10:59:14;;;;;;;6.83;4.77;;;12.50;99.90;;;;;;5026821;28;20421;-39
2021/10/17 11:01:53;;;;;;;7.57;5.20;;;12.50;99.90;;;;;;5027852;28;21014;-38
2021/10/17 11:04:37;;;;;;;6.70;4.17;;;12.50;99.90;;;;;;5023924;28;20429;-40
2021/10/17 11:07:22;;;;;;;8.50;4.33;;;12.60;99.90;;;;;;5027566;28;20479;-39
2021/10/17 11:09:49;;;;;;;9.73;4.33;;;12.70;99.90;;;;;;5019718;28;20457;-39
2021/10/17 11:12:44;;;;;;;4.67;3.93;;;12.70;99.90;;;;;;5025277;28;20552;-39
2021/10/17 11:15:12;;;;;;;5.73;3.93;;;12.80;99.90;;;;;;5028122;28;20695;-38
2021/10/17 11:17:46;;;;;;;4.77;3.60;;;12.80;99.90;;;;;;5044083;28;20487;-39
2021/10/17 11:20:18;;;;;;;7.80;4.03;;;12.80;99.90;;;;;;5025718;28;20421;-38
2021/10/17 11:22:44;;;;;;;6.37;4.20;;;12.90;99.90;;;;;;5027282;28;20414;-39
2021/10/17 11:25:14;;;;;;;5.87;4.13;;;12.90;99.90;;;;;;5018664;28;20426;-39
2021/10/17 11:27:40;;;;;;;6.43;3.87;;;13.00;99.90;;;;;;5027862;28;20419;-39
2021/10/17 11:30:21;;;;;;;6.93;4.17;;;13.00;99.90;;;;;;5028813;28;20426;-38
2021/10/17 11:32:47;;;;;;;6.63;3.17;;;13.10;99.90;;;;;;5024867;28;20460;-39
2021/10/17 11:35:13;;;;;;;3.77;3.20;;;13.10;99.90;;;;;;5028777;28;20483;-38
2021/10/17 11:37:39;;;;;;;5.70;4.07;;;13.10;99.90;;;;;;5025391;28;20503;-38
2021/10/17 11:40:08;;;;;;;4.80;3.20;;;13.20;99.90;;;;;;5016728;28;20179;-39
2021/10/17 11:42:52;;;;;;;4.73;3.70;;;13.20;99.90;;;;;;5027912;28;20425;-39
2021/10/17 11:45:21;;;;;;;4.03;3.17;;;13.20;99.90;;;;;;5025332;28;20476;-39
2021/10/17 11:47:48;;;;;;;7.37;3.63;;;13.20;99.90;;;;;;5023192;28;20457;-39
2021/10/17 11:50:21;;;;;;;5.33;3.10;;;13.20;99.90;;;;;;5025817;28;20656;-39
2021/10/17 11:52:51;;;;;;;5.40;3.70;;;13.20;99.90;;;;;;5017491;28;20837;-38
2021/10/17 11:55:34;;;;;;;6.10;3.50;;;13.30;99.90;;;;;;5024790;28;20425;-38
2021/10/17 11:58:00;;;;;;;4.80;3.60;;;13.30;99.90;;;;;;5021703;28;20479;-39
2021/10/17 12:00:27;;;;;;;10.27;3.83;;;13.40;99.90;;;;;;5025471;28;20692;-39
2021/10/17 12:02:54;;;;;;;7.00;3.37;;;13.40;99.90;;;;;;5023419;28;20892;-39
2021/10/17 12:05:24;;;;;;;5.93;3.50;;;13.40;99.90;;;;;;5022007;28;20437;-39
2021/10/17 12:07:51;;;;;;;4.20;3.20;;;13.40;99.90;;;;;;5027854;28;20424;-39
2021/10/17 12:10:17;;;;;;;6.10;3.47;;;13.50;99.90;;;;;;5012052;28;20483;-39
2021/10/17 12:12:44;;;;;;;6.50;3.07;;;13.60;99.90;;;;;;5016783;28;20957;-39
2021/10/17 12:15:14;;;;;;;3.97;3.20;;;13.60;99.90;;;;;;5024380;28;20178;-39
2021/10/17 12:17:40;;;;;;;3.57;2.57;;;13.70;99.90;;;;;;5025609;28;20439;-39
2021/10/17 12:20:12;;;;;;;3.47;2.40;;;13.70;99.90;;;;;;5034501;28;20425;-39
2021/10/17 12:22:45;;;;;;;4.40;2.20;;;13.80;99.90;;;;;;5025532;28;20409;-39
2021/10/17 12:25:14;;;;;;;3.10;2.67;;;13.90;99.90;;;;;;5018561;28;20449;-39
2021/10/17 12:27:43;;;;;;;6.17;4.00;;;14.00;99.90;;;;;;5018547;28;20421;-40
2021/10/17 12:30:12;;;;;;;3.67;2.57;;;14.10;99.90;;;;;;5025856;28;20729;-38
2021/10/17 12:32:54;;;;;;;4.10;2.50;;;14.10;99.90;;;;;;5025624;28;20460;-39
2021/10/17 12:35:33;;;;;;;3.50;2.30;;;14.30;99.90;;;;;;5025674;28;20451;-39
2021/10/17 12:38:10;;;;;;;3.90;2.60;;;14.40;99.90;;;;;;5022193;28;20991;-39
2021/10/17 12:40:55;;;;;;;3.70;2.40;;;14.60;99.90;;;;;;5020150;28;20431;-39
2021/10/17 12:43:38;;;;;;;3.10;2.00;;;14.70;99.90;;;;;;5022340;28;20414;-39
2021/10/17 12:46:17;;;;;;;4.63;2.83;;;14.80;99.90;;;;;;5023999;28;20524;-39
2021/10/17 12:48:48;;;;;;;4.33;2.50;;;14.90;99.90;;;;;;5025550;28;20775;-41
2021/10/17 12:51:27;;;;;;;3.10;2.37;;;14.90;99.90;;;;;;5024549;28;20545;-39
2021/10/17 12:54:18;;;;;;;4.63;2.20;;;14.90;99.90;;;;;;5026562;28;20448;-39